sensor_id;sensor_type;location;lat;lon;timestamp;P1;durP1;ratioP1;P2;durP2;ratioP2
30571;SDS011;17348;50.948;10.696;2022-11-15T00:00:26;5.65;;;2.78;;
30571;SDS011;17348;50.948;10.696;2022-11-15T00:03:35;7.80;;;2.50;;
30571;SDS011;17348;50.948;10.696;2022-11-15T00:06:37;5.25;;;2.70;;
30571;SDS011;17348;50.948;10.696;2022-11-15T00:09:41;6.10;;;2.67;;
30571;SDS011;17348;50.948;10.696;2022-11-15T00:12:43;4.43;;;2.83;;
30571;SDS011;17348;50.948;10.696;2022-11-15T00:15:46;5.25;;;2.67;;
30571;SDS011;17348;50.948;10.696;2022-11-15T00:18:48;4.28;;;2.42;;
30571;SDS011;17348;50.948;10.696;2022-11-15T00:21:51;10.90;;;2.75;;
30571;SDS011;17348;50.948;10.696;2022-11-15T00:24:54;4.50;;;2.17;;
30571;SDS011;17348;50.948;10.696;2022-11-15T00:27:57;5.55;;;2.55;;
30571;SDS011;17348;50.948;10.696;2022-11-15T00:31:00;12.65;;;3.10;;
30571;SDS011;17348;50.948;10.696;2022-11-15T00:34:03;6.40;;;2.97;;
30571;SDS011;17348;50.948;10.696;2022-11-15T00:37:05;4.88;;;2.70;;
30571;SDS011;17348;50.948;10.696;2022-11-15T00:40:10;4.18;;;2.30;;
30571;SDS011;17348;50.948;10.696;2022-11-15T00:43:14;5.63;;;2.42;;
30571;SDS011;17348;50.948;10.696;2022-11-15T00:46:16;4.35;;;2.33;;
30571;SDS011;17348;50.948;10.696;2022-11-15T00:49:19;13.23;;;3.03;;
30571;SDS011;17348;50.948;10.696;2022-11-15T00:52:21;7.03;;;2.78;;
30571;SDS011;17348;50.948;10.696;2022-11-15T00:55:25;8.73;;;2.70;;
30571;SDS011;17348;50.948;10.696;2022-11-15T00:58:27;4.78;;;2.50;;
30571;SDS011;17348;50.948;10.696;2022-11-15T01:01:29;5.80;;;2.60;;
30571;SDS011;17348;50.948;10.696;2022-11-15T01:04:31;8.98;;;2.70;;
30571;SDS011;17348;50.948;10.696;2022-11-15T01:07:34;4.10;;;2.47;;
30571;SDS011;17348;50.948;10.696;2022-11-15T01:10:38;5.25;;;2.63;;
30571;SDS011;17348;50.948;10.696;2022-11-15T01:13:40;8.15;;;3.17;;
30571;SDS011;17348;50.948;10.696;2022-11-15T01:16:42;4.60;;;2.75;;
30571;SDS011;17348;50.948;10.696;2022-11-15T01:19:45;9.30;;;2.95;;
30571;SDS011;17348;50.948;10.696;2022-11-15T01:22:47;7.10;;;3.00;;
30571;SDS011;17348;50.948;10.696;2022-11-15T01:25:51;3.50;;;2.45;;
30571;SDS011;17348;50.948;10.696;2022-11-15T01:28:53;5.97;;;2.83;;
30571;SDS011;17348;50.948;10.696;2022-11-15T01:31:55;8.68;;;2.70;;
30571;SDS011;17348;50.948;10.696;2022-11-15T01:34:58;6.22;;;2.70;;
30571;SDS011;17348;50.948;10.696;2022-11-15T01:38:00;4.53;;;2.63;;
30571;SDS011;17348;50.948;10.696;2022-11-15T01:41:04;5.95;;;2.75;;
30571;SDS011;17348;50.948;10.696;2022-11-15T01:47:39;9.55;;;2.65;;
30571;SDS011;17348;50.948;10.696;2022-11-15T01:50:44;6.60;;;2.70;;
30571;SDS011;17348;50.948;10.696;2022-11-15T01:53:47;4.72;;;2.33;;
30571;SDS011;17348;50.948;10.696;2022-11-15T01:56:54;7.53;;;2.88;;
30571;SDS011;17348;50.948;10.696;2022-11-15T02:00:01;6.53;;;3.00;;
30571;SDS011;17348;50.948;10.696;2022-11-15T02:03:05;5.60;;;2.92;;
30571;SDS011;17348;50.948;10.696;2022-11-15T02:06:08;7.38;;;2.88;;
30571;SDS011;17348;50.948;10.696;2022-11-15T02:09:11;6.88;;;3.35;;
30571;SDS011;17348;50.948;10.696;2022-11-15T02:12:16;8.60;;;3.08;;
30571;SDS011;17348;50.948;10.696;2022-11-15T02:15:22;6.57;;;3.20;;
30571;SDS011;17348;50.948;10.696;2022-11-15T02:18:29;5.20;;;3.05;;
30571;SDS011;17348;50.948;10.696;2022-11-15T02:21:38;8.73;;;3.22;;
30571;SDS011;17348;50.948;10.696;2022-11-15T02:25:01;5.65;;;2.85;;
30571;SDS011;17348;50.948;10.696;2022-11-15T02:28:19;10.55;;;3.13;;
30571;SDS011;17348;50.948;10.696;2022-11-15T02:31:45;6.72;;;3.65;;
30571;SDS011;17348;50.948;10.696;2022-11-15T02:34:54;6.90;;;3.50;;
30571;SDS011;17348;50.948;10.696;2022-11-15T02:38:04;7.25;;;2.92;;
30571;SDS011;17348;50.948;10.696;2022-11-15T02:41:10;6.27;;;3.53;;
30571;SDS011;17348;50.948;10.696;2022-11-15T02:44:20;5.97;;;3.00;;
30571;SDS011;17348;50.948;10.696;2022-11-15T02:47:27;7.83;;;3.77;;
30571;SDS011;17348;50.948;10.696;2022-11-15T02:50:31;6.63;;;3.37;;
30571;SDS011;17348;50.948;10.696;2022-11-15T02:53:35;7.33;;;3.70;;
30571;SDS011;17348;50.948;10.696;2022-11-15T02:56:37;5.23;;;3.30;;
30571;SDS011;17348;50.948;10.696;2022-11-15T02:59:44;5.77;;;3.33;;
30571;SDS011;17348;50.948;10.696;2022-11-15T03:03:11;8.00;;;3.03;;
30571;SDS011;17348;50.948;10.696;2022-11-15T03:06:35;11.70;;;2.90;;
30571;SDS011;17348;50.948;10.696;2022-11-15T03:09:45;13.57;;;4.20;;
30571;SDS011;17348;50.948;10.696;2022-11-15T03:16:00;11.20;;;3.33;;
30571;SDS011;17348;50.948;10.696;2022-11-15T03:19:07;7.17;;;3.40;;
30571;SDS011;17348;50.948;10.696;2022-11-15T03:22:16;5.15;;;3.15;;
30571;SDS011;17348;50.948;10.696;2022-11-15T03:25:21;7.30;;;3.53;;
30571;SDS011;17348;50.948;10.696;2022-11-15T03:28:28;8.50;;;4.00;;
30571;SDS011;17348;50.948;10.696;2022-11-15T03:31:37;6.27;;;3.57;;
30571;SDS011;17348;50.948;10.696;2022-11-15T03:34:50;5.07;;;2.83;;
30571;SDS011;17348;50.948;10.696;2022-11-15T03:37:59;8.53;;;3.70;;
30571;SDS011;17348;50.948;10.696;2022-11-15T03:41:08;8.37;;;3.70;;
30571;SDS011;17348;50.948;10.696;2022-11-15T03:44:20;7.72;;;3.53;;
30571;SDS011;17348;50.948;10.696;2022-11-15T03:47:35;12.27;;;3.70;;
30571;SDS011;17348;50.948;10.696;2022-11-15T03:50:44;10.67;;;3.47;;
30571;SDS011;17348;50.948;10.696;2022-11-15T03:53:47;7.00;;;3.33;;
30571;SDS011;17348;50.948;10.696;2022-11-15T03:56:50;6.50;;;3.80;;
30571;SDS011;17348;50.948;10.696;2022-11-15T03:59:53;7.60;;;3.37;;
30571;SDS011;17348;50.948;10.696;2022-11-15T04:02:55;8.20;;;3.10;;
30571;SDS011;17348;50.948;10.696;2022-11-15T04:05:59;5.10;;;3.43;;
30571;SDS011;17348;50.948;10.696;2022-11-15T04:09:01;7.97;;;4.00;;
30571;SDS011;17348;50.948;10.696;2022-11-15T04:12:04;10.70;;;3.73;;
30571;SDS011;17348;50.948;10.696;2022-11-15T04:15:07;5.73;;;3.53;;
30571;SDS011;17348;50.948;10.696;2022-11-15T04:18:11;10.33;;;3.87;;
30571;SDS011;17348;50.948;10.696;2022-11-15T04:21:15;8.27;;;4.10;;
30571;SDS011;17348;50.948;10.696;2022-11-15T04:24:35;6.47;;;3.77;;
30571;SDS011;17348;50.948;10.696;2022-11-15T04:27:37;5.83;;;3.80;;
30571;SDS011;17348;50.948;10.696;2022-11-15T04:30:39;8.27;;;3.73;;
30571;SDS011;17348;50.948;10.696;2022-11-15T04:33:42;11.23;;;4.27;;
30571;SDS011;17348;50.948;10.696;2022-11-15T04:36:45;11.10;;;4.67;;
30571;SDS011;17348;50.948;10.696;2022-11-15T04:40:10;7.43;;;3.37;;
30571;SDS011;17348;50.948;10.696;2022-11-15T04:43:13;8.37;;;4.07;;
30571;SDS011;17348;50.948;10.696;2022-11-15T04:46:15;8.87;;;3.80;;
30571;SDS011;17348;50.948;10.696;2022-11-15T04:49:18;13.60;;;3.73;;
30571;SDS011;17348;50.948;10.696;2022-11-15T04:52:21;10.40;;;4.60;;
30571;SDS011;17348;50.948;10.696;2022-11-15T04:55:24;13.30;;;4.37;;
30571;SDS011;17348;50.948;10.696;2022-11-15T04:58:26;9.93;;;4.07;;
30571;SDS011;17348;50.948;10.696;2022-11-15T05:01:29;12.63;;;3.97;;
30571;SDS011;17348;50.948;10.696;2022-11-15T05:04:31;9.27;;;3.80;;
30571;SDS011;17348;50.948;10.696;2022-11-15T05:07:34;7.17;;;3.40;;
30571;SDS011;17348;50.948;10.696;2022-11-15T05:10:37;8.63;;;4.23;;
30571;SDS011;17348;50.948;10.696;2022-11-15T05:13:39;11.10;;;4.17;;
30571;SDS011;17348;50.948;10.696;2022-11-15T05:16:42;6.07;;;3.77;;
30571;SDS011;17348;50.948;10.696;2022-11-15T05:19:44;11.07;;;3.63;;
30571;SDS011;17348;50.948;10.696;2022-11-15T05:22:48;8.17;;;3.97;;
30571;SDS011;17348;50.948;10.696;2022-11-15T05:25:50;11.90;;;4.70;;
30571;SDS011;17348;50.948;10.696;2022-11-15T05:28:59;7.90;;;4.03;;
30571;SDS011;17348;50.948;10.696;2022-11-15T05:32:02;10.57;;;4.73;;
30571;SDS011;17348;50.948;10.696;2022-11-15T05:35:06;6.10;;;3.43;;
30571;SDS011;17348;50.948;10.696;2022-11-15T05:38:14;11.37;;;4.97;;
30571;SDS011;17348;50.948;10.696;2022-11-15T05:41:17;11.77;;;4.83;;
30571;SDS011;17348;50.948;10.696;2022-11-15T05:44:22;9.10;;;4.67;;
30571;SDS011;17348;50.948;10.696;2022-11-15T05:47:27;11.03;;;4.33;;
30571;SDS011;17348;50.948;10.696;2022-11-15T05:50:32;9.57;;;3.57;;
30571;SDS011;17348;50.948;10.696;2022-11-15T05:53:36;5.30;;;2.80;;
30571;SDS011;17348;50.948;10.696;2022-11-15T05:56:39;9.03;;;3.57;;
30571;SDS011;17348;50.948;10.696;2022-11-15T05:59:42;9.53;;;3.43;;
30571;SDS011;17348;50.948;10.696;2022-11-15T06:02:45;12.93;;;3.50;;
30571;SDS011;17348;50.948;10.696;2022-11-15T06:05:47;14.40;;;3.33;;
30571;SDS011;17348;50.948;10.696;2022-11-15T06:08:51;6.80;;;3.67;;
30571;SDS011;17348;50.948;10.696;2022-11-15T06:11:53;12.20;;;3.23;;
30571;SDS011;17348;50.948;10.696;2022-11-15T06:14:55;7.50;;;3.00;;
30571;SDS011;17348;50.948;10.696;2022-11-15T06:17:58;8.10;;;3.42;;
30571;SDS011;17348;50.948;10.696;2022-11-15T06:21:00;6.75;;;3.42;;
30571;SDS011;17348;50.948;10.696;2022-11-15T06:24:05;6.20;;;2.80;;
30571;SDS011;17348;50.948;10.696;2022-11-15T06:27:08;8.65;;;3.72;;
30571;SDS011;17348;50.948;10.696;2022-11-15T06:30:10;6.38;;;2.83;;
30571;SDS011;17348;50.948;10.696;2022-11-15T06:33:13;9.85;;;3.55;;
30571;SDS011;17348;50.948;10.696;2022-11-15T06:36:15;14.82;;;6.45;;
30571;SDS011;17348;50.948;10.696;2022-11-15T06:39:19;23.15;;;8.23;;
30571;SDS011;17348;50.948;10.696;2022-11-15T06:42:22;17.88;;;6.07;;
30571;SDS011;17348;50.948;10.696;2022-11-15T06:45:24;7.40;;;4.38;;
30571;SDS011;17348;50.948;10.696;2022-11-15T06:48:27;7.47;;;3.38;;
30571;SDS011;17348;50.948;10.696;2022-11-15T06:51:30;15.75;;;3.38;;
30571;SDS011;17348;50.948;10.696;2022-11-15T06:54:34;8.15;;;4.22;;
30571;SDS011;17348;50.948;10.696;2022-11-15T06:57:36;10.63;;;3.70;;
30571;SDS011;17348;50.948;10.696;2022-11-15T07:00:39;20.88;;;4.53;;
30571;SDS011;17348;50.948;10.696;2022-11-15T07:03:43;13.32;;;4.07;;
30571;SDS011;17348;50.948;10.696;2022-11-15T07:06:46;16.52;;;4.97;;
30571;SDS011;17348;50.948;10.696;2022-11-15T07:09:50;11.98;;;4.75;;
30571;SDS011;17348;50.948;10.696;2022-11-15T07:12:53;11.95;;;4.72;;
30571;SDS011;17348;50.948;10.696;2022-11-15T07:15:56;13.50;;;5.35;;
30571;SDS011;17348;50.948;10.696;2022-11-15T07:18:59;14.40;;;5.28;;
30571;SDS011;17348;50.948;10.696;2022-11-15T07:22:01;12.38;;;5.55;;
30571;SDS011;17348;50.948;10.696;2022-11-15T07:25:05;13.18;;;5.55;;
30571;SDS011;17348;50.948;10.696;2022-11-15T07:28:08;13.47;;;6.33;;
30571;SDS011;17348;50.948;10.696;2022-11-15T07:31:11;15.23;;;5.75;;
30571;SDS011;17348;50.948;10.696;2022-11-15T07:34:13;12.25;;;5.80;;
30571;SDS011;17348;50.948;10.696;2022-11-15T07:37:16;11.75;;;5.30;;
30571;SDS011;17348;50.948;10.696;2022-11-15T07:40:19;15.27;;;5.60;;
30571;SDS011;17348;50.948;10.696;2022-11-15T07:43:22;12.20;;;5.88;;
30571;SDS011;17348;50.948;10.696;2022-11-15T07:46:24;9.43;;;4.70;;
30571;SDS011;17348;50.948;10.696;2022-11-15T07:49:27;10.48;;;4.82;;
30571;SDS011;17348;50.948;10.696;2022-11-15T07:52:29;9.98;;;4.35;;
30571;SDS011;17348;50.948;10.696;2022-11-15T07:55:33;10.82;;;5.30;;
30571;SDS011;17348;50.948;10.696;2022-11-15T07:58:35;14.30;;;5.50;;
30571;SDS011;17348;50.948;10.696;2022-11-15T08:01:38;16.40;;;7.80;;
30571;SDS011;17348;50.948;10.696;2022-11-15T08:04:40;13.98;;;7.05;;
30571;SDS011;17348;50.948;10.696;2022-11-15T08:07:44;11.88;;;5.82;;
30571;SDS011;17348;50.948;10.696;2022-11-15T08:10:48;8.15;;;4.47;;
30571;SDS011;17348;50.948;10.696;2022-11-15T08:13:50;9.55;;;3.75;;
30571;SDS011;17348;50.948;10.696;2022-11-15T08:16:53;10.55;;;3.92;;
30571;SDS011;17348;50.948;10.696;2022-11-15T08:19:56;6.53;;;3.70;;
30571;SDS011;17348;50.948;10.696;2022-11-15T08:22:59;11.00;;;3.95;;
30571;SDS011;17348;50.948;10.696;2022-11-15T08:26:04;9.90;;;4.95;;
30571;SDS011;17348;50.948;10.696;2022-11-15T08:29:06;7.65;;;3.10;;
30571;SDS011;17348;50.948;10.696;2022-11-15T08:32:09;8.85;;;2.88;;
30571;SDS011;17348;50.948;10.696;2022-11-15T08:35:12;7.00;;;2.92;;
30571;SDS011;17348;50.948;10.696;2022-11-15T08:38:14;4.38;;;2.60;;
30571;SDS011;17348;50.948;10.696;2022-11-15T08:41:19;6.45;;;3.17;;
30571;SDS011;17348;50.948;10.696;2022-11-15T08:44:27;8.82;;;2.90;;
30571;SDS011;17348;50.948;10.696;2022-11-15T08:47:29;7.18;;;3.05;;
30571;SDS011;17348;50.948;10.696;2022-11-15T08:50:32;6.68;;;2.92;;
30571;SDS011;17348;50.948;10.696;2022-11-15T08:53:34;11.55;;;2.70;;
30571;SDS011;17348;50.948;10.696;2022-11-15T08:56:38;6.72;;;2.75;;
30571;SDS011;17348;50.948;10.696;2022-11-15T08:59:41;3.47;;;2.35;;
30571;SDS011;17348;50.948;10.696;2022-11-15T09:02:43;6.88;;;2.88;;
30571;SDS011;17348;50.948;10.696;2022-11-15T09:05:45;5.72;;;3.40;;
30571;SDS011;17348;50.948;10.696;2022-11-15T09:08:48;5.35;;;2.60;;
30571;SDS011;17348;50.948;10.696;2022-11-15T09:11:51;7.22;;;2.70;;
30571;SDS011;17348;50.948;10.696;2022-11-15T09:14:54;5.47;;;2.83;;
30571;SDS011;17348;50.948;10.696;2022-11-15T09:17:57;9.15;;;2.70;;
30571;SDS011;17348;50.948;10.696;2022-11-15T09:21:00;7.80;;;3.80;;
30571;SDS011;17348;50.948;10.696;2022-11-15T09:24:05;11.20;;;4.30;;
30571;SDS011;17348;50.948;10.696;2022-11-15T09:27:09;11.88;;;4.55;;
30571;SDS011;17348;50.948;10.696;2022-11-15T09:30:11;12.45;;;4.70;;
30571;SDS011;17348;50.948;10.696;2022-11-15T09:33:14;10.85;;;4.78;;
30571;SDS011;17348;50.948;10.696;2022-11-15T09:36:17;10.32;;;4.93;;
30571;SDS011;17348;50.948;10.696;2022-11-15T09:39:19;14.77;;;5.40;;
30571;SDS011;17348;50.948;10.696;2022-11-15T09:42:25;6.43;;;3.83;;
30571;SDS011;17348;50.948;10.696;2022-11-15T09:45:41;4.75;;;3.00;;
30571;SDS011;17348;50.948;10.696;2022-11-15T09:48:51;16.20;;;4.10;;
30571;SDS011;17348;50.948;10.696;2022-11-15T09:51:56;4.72;;;2.35;;
30571;SDS011;17348;50.948;10.696;2022-11-15T09:54:59;6.47;;;2.40;;
30571;SDS011;17348;50.948;10.696;2022-11-15T10:01:33;8.00;;;2.40;;
30571;SDS011;17348;50.948;10.696;2022-11-15T10:04:42;6.50;;;2.72;;
30571;SDS011;17348;50.948;10.696;2022-11-15T10:07:46;4.05;;;2.63;;
30571;SDS011;17348;50.948;10.696;2022-11-15T10:14:01;10.57;;;4.10;;
30571;SDS011;17348;50.948;10.696;2022-11-15T10:17:09;9.65;;;4.32;;
30571;SDS011;17348;50.948;10.696;2022-11-15T10:20:43;10.35;;;4.30;;
30571;SDS011;17348;50.948;10.696;2022-11-15T10:23:50;13.75;;;5.22;;
30571;SDS011;17348;50.948;10.696;2022-11-15T10:26:55;10.30;;;4.38;;
30571;SDS011;17348;50.948;10.696;2022-11-15T10:29:59;6.85;;;3.80;;
30571;SDS011;17348;50.948;10.696;2022-11-15T10:33:09;7.65;;;3.63;;
30571;SDS011;17348;50.948;10.696;2022-11-15T10:36:21;15.75;;;3.67;;
30571;SDS011;17348;50.948;10.696;2022-11-15T10:39:26;15.10;;;3.78;;
30571;SDS011;17348;50.948;10.696;2022-11-15T10:42:28;6.18;;;3.55;;
30571;SDS011;17348;50.948;10.696;2022-11-15T10:45:33;9.38;;;3.65;;
30571;SDS011;17348;50.948;10.696;2022-11-15T10:48:35;7.90;;;4.00;;
30571;SDS011;17348;50.948;10.696;2022-11-15T10:51:40;13.00;;;3.80;;
30571;SDS011;17348;50.948;10.696;2022-11-15T10:54:45;7.93;;;2.83;;
30571;SDS011;17348;50.948;10.696;2022-11-15T10:57:51;9.93;;;3.30;;
30571;SDS011;17348;50.948;10.696;2022-11-15T11:00:57;8.60;;;3.17;;
30571;SDS011;17348;50.948;10.696;2022-11-15T11:04:11;7.72;;;3.17;;
30571;SDS011;17348;50.948;10.696;2022-11-15T11:07:19;6.43;;;2.90;;
30571;SDS011;17348;50.948;10.696;2022-11-15T11:10:23;7.72;;;3.42;;
30571;SDS011;17348;50.948;10.696;2022-11-15T11:13:27;7.90;;;3.15;;
30571;SDS011;17348;50.948;10.696;2022-11-15T11:16:40;10.32;;;3.13;;
30571;SDS011;17348;50.948;10.696;2022-11-15T11:19:46;2.92;;;2.00;;
30571;SDS011;17348;50.948;10.696;2022-11-15T11:23:01;3.97;;;1.92;;
30571;SDS011;17348;50.948;10.696;2022-11-15T11:26:14;5.00;;;2.45;;
30571;SDS011;17348;50.948;10.696;2022-11-15T11:29:44;8.23;;;2.28;;
30571;SDS011;17348;50.948;10.696;2022-11-15T11:33:05;10.50;;;2.60;;
30571;SDS011;17348;50.948;10.696;2022-11-15T11:36:17;5.05;;;2.65;;
30571;SDS011;17348;50.948;10.696;2022-11-15T11:39:24;4.97;;;2.35;;
30571;SDS011;17348;50.948;10.696;2022-11-15T11:42:41;3.80;;;1.80;;
30571;SDS011;17348;50.948;10.696;2022-11-15T11:45:56;12.35;;;2.10;;
30571;SDS011;17348;50.948;10.696;2022-11-15T11:49:15;5.13;;;2.42;;
30571;SDS011;17348;50.948;10.696;2022-11-15T11:52:22;3.60;;;2.05;;
30571;SDS011;17348;50.948;10.696;2022-11-15T11:55:29;3.85;;;1.98;;
30571;SDS011;17348;50.948;10.696;2022-11-15T11:58:38;5.35;;;1.90;;
30571;SDS011;17348;50.948;10.696;2022-11-15T12:01:44;4.75;;;2.15;;
30571;SDS011;17348;50.948;10.696;2022-11-15T12:04:50;4.53;;;2.17;;
30571;SDS011;17348;50.948;10.696;2022-11-15T12:07:56;11.25;;;1.90;;
30571;SDS011;17348;50.948;10.696;2022-11-15T12:14:12;6.05;;;2.20;;
30571;SDS011;17348;50.948;10.696;2022-11-15T12:17:24;10.65;;;2.20;;
30571;SDS011;17348;50.948;10.696;2022-11-15T12:20:30;4.80;;;2.25;;
30571;SDS011;17348;50.948;10.696;2022-11-15T12:23:38;3.83;;;2.33;;
30571;SDS011;17348;50.948;10.696;2022-11-15T12:26:47;3.42;;;2.20;;
30571;SDS011;17348;50.948;10.696;2022-11-15T12:29:53;4.80;;;1.98;;
30571;SDS011;17348;50.948;10.696;2022-11-15T12:32:58;8.77;;;2.10;;
30571;SDS011;17348;50.948;10.696;2022-11-15T12:36:05;3.97;;;2.30;;
30571;SDS011;17348;50.948;10.696;2022-11-15T12:39:12;9.55;;;2.45;;
30571;SDS011;17348;50.948;10.696;2022-11-15T12:45:38;4.15;;;2.58;;
30571;SDS011;17348;50.948;10.696;2022-11-15T12:48:46;9.25;;;2.25;;
30571;SDS011;17348;50.948;10.696;2022-11-15T12:52:04;11.35;;;2.38;;
30571;SDS011;17348;50.948;10.696;2022-11-15T12:58:40;5.65;;;2.25;;
30571;SDS011;17348;50.948;10.696;2022-11-15T13:01:59;9.80;;;2.28;;
30571;SDS011;17348;50.948;10.696;2022-11-15T13:08:39;6.30;;;2.72;;
30571;SDS011;17348;50.948;10.696;2022-11-15T13:11:49;5.53;;;2.08;;
30571;SDS011;17348;50.948;10.696;2022-11-15T13:14:53;6.05;;;2.42;;
30571;SDS011;17348;50.948;10.696;2022-11-15T13:17:56;9.48;;;2.22;;
30571;SDS011;17348;50.948;10.696;2022-11-15T13:21:00;3.35;;;2.20;;
30571;SDS011;17348;50.948;10.696;2022-11-15T13:24:26;2.75;;;2.10;;
30571;SDS011;17348;50.948;10.696;2022-11-15T13:27:28;9.27;;;1.98;;
30571;SDS011;17348;50.948;10.696;2022-11-15T13:30:31;3.95;;;2.45;;
30571;SDS011;17348;50.948;10.696;2022-11-15T13:33:35;6.65;;;3.10;;
30571;SDS011;17348;50.948;10.696;2022-11-15T13:36:38;3.03;;;1.80;;
30571;SDS011;17348;50.948;10.696;2022-11-15T13:39:42;3.70;;;1.50;;
30571;SDS011;17348;50.948;10.696;2022-11-15T13:42:44;4.13;;;1.80;;
30571;SDS011;17348;50.948;10.696;2022-11-15T13:45:55;10.85;;;2.45;;
30571;SDS011;17348;50.948;10.696;2022-11-15T13:49:07;10.13;;;3.53;;
30571;SDS011;17348;50.948;10.696;2022-11-15T13:52:12;9.77;;;2.63;;
30571;SDS011;17348;50.948;10.696;2022-11-15T13:55:19;5.13;;;2.65;;
30571;SDS011;17348;50.948;10.696;2022-11-15T13:58:24;3.42;;;1.58;;
30571;SDS011;17348;50.948;10.696;2022-11-15T14:01:28;2.78;;;1.60;;
30571;SDS011;17348;50.948;10.696;2022-11-15T14:04:33;4.97;;;1.70;;
30571;SDS011;17348;50.948;10.696;2022-11-15T14:07:41;3.28;;;1.63;;
30571;SDS011;17348;50.948;10.696;2022-11-15T14:11:09;3.67;;;1.52;;
30571;SDS011;17348;50.948;10.696;2022-11-15T14:14:19;2.25;;;1.52;;
30571;SDS011;17348;50.948;10.696;2022-11-15T14:17:33;2.90;;;1.58;;
30571;SDS011;17348;50.948;10.696;2022-11-15T14:20:37;11.77;;;1.92;;
30571;SDS011;17348;50.948;10.696;2022-11-15T14:23:40;2.40;;;1.77;;
30571;SDS011;17348;50.948;10.696;2022-11-15T14:26:44;2.58;;;1.40;;
30571;SDS011;17348;50.948;10.696;2022-11-15T14:29:47;4.57;;;2.30;;
30571;SDS011;17348;50.948;10.696;2022-11-15T14:32:50;3.65;;;2.10;;
30571;SDS011;17348;50.948;10.696;2022-11-15T14:35:52;3.88;;;2.03;;
30571;SDS011;17348;50.948;10.696;2022-11-15T14:38:56;4.03;;;1.90;;
30571;SDS011;17348;50.948;10.696;2022-11-15T14:42:00;1.80;;;1.10;;
30571;SDS011;17348;50.948;10.696;2022-11-15T14:45:02;2.85;;;1.50;;
30571;SDS011;17348;50.948;10.696;2022-11-15T14:48:09;2.83;;;1.42;;
30571;SDS011;17348;50.948;10.696;2022-11-15T14:51:12;5.88;;;1.95;;
30571;SDS011;17348;50.948;10.696;2022-11-15T14:54:17;10.63;;;2.00;;
30571;SDS011;17348;50.948;10.696;2022-11-15T14:57:20;12.48;;;1.75;;
30571;SDS011;17348;50.948;10.696;2022-11-15T15:00:23;7.93;;;2.17;;
30571;SDS011;17348;50.948;10.696;2022-11-15T15:03:26;3.22;;;2.17;;
30571;SDS011;17348;50.948;10.696;2022-11-15T15:06:28;4.90;;;2.33;;
30571;SDS011;17348;50.948;10.696;2022-11-15T15:09:31;5.03;;;2.25;;
30571;SDS011;17348;50.948;10.696;2022-11-15T15:12:34;2.92;;;2.05;;
30571;SDS011;17348;50.948;10.696;2022-11-15T15:15:37;5.25;;;2.42;;
30571;SDS011;17348;50.948;10.696;2022-11-15T15:18:40;7.20;;;2.47;;
30571;SDS011;17348;50.948;10.696;2022-11-15T15:21:42;7.22;;;2.72;;
30571;SDS011;17348;50.948;10.696;2022-11-15T15:24:45;6.88;;;2.65;;
30571;SDS011;17348;50.948;10.696;2022-11-15T15:27:49;7.00;;;3.20;;
30571;SDS011;17348;50.948;10.696;2022-11-15T15:30:51;4.53;;;2.88;;
30571;SDS011;17348;50.948;10.696;2022-11-15T15:33:54;4.95;;;2.75;;
30571;SDS011;17348;50.948;10.696;2022-11-15T15:37:11;4.43;;;2.67;;
30571;SDS011;17348;50.948;10.696;2022-11-15T15:40:24;4.30;;;2.60;;
30571;SDS011;17348;50.948;10.696;2022-11-15T15:43:30;5.88;;;2.53;;
30571;SDS011;17348;50.948;10.696;2022-11-15T15:46:33;3.95;;;2.22;;
30571;SDS011;17348;50.948;10.696;2022-11-15T15:49:36;3.50;;;2.38;;
30571;SDS011;17348;50.948;10.696;2022-11-15T15:52:39;9.43;;;3.42;;
30571;SDS011;17348;50.948;10.696;2022-11-15T15:55:41;8.95;;;4.35;;
30571;SDS011;17348;50.948;10.696;2022-11-15T15:58:45;12.85;;;3.97;;
30571;SDS011;17348;50.948;10.696;2022-11-15T16:01:47;9.73;;;3.33;;
30571;SDS011;17348;50.948;10.696;2022-11-15T16:04:50;9.20;;;3.30;;
30571;SDS011;17348;50.948;10.696;2022-11-15T16:07:52;18.65;;;5.15;;
30571;SDS011;17348;50.948;10.696;2022-11-15T16:10:57;15.55;;;5.18;;
30571;SDS011;17348;50.948;10.696;2022-11-15T16:14:01;9.38;;;3.95;;
30571;SDS011;17348;50.948;10.696;2022-11-15T16:17:03;11.70;;;4.40;;
30571;SDS011;17348;50.948;10.696;2022-11-15T16:20:06;6.82;;;3.30;;
30571;SDS011;17348;50.948;10.696;2022-11-15T16:23:17;10.57;;;4.32;;
30571;SDS011;17348;50.948;10.696;2022-11-15T16:26:25;6.53;;;3.35;;
30571;SDS011;17348;50.948;10.696;2022-11-15T16:29:30;6.53;;;3.45;;
30571;SDS011;17348;50.948;10.696;2022-11-15T16:32:32;9.70;;;2.90;;
30571;SDS011;17348;50.948;10.696;2022-11-15T16:35:35;5.05;;;3.15;;
30571;SDS011;17348;50.948;10.696;2022-11-15T16:38:37;5.93;;;3.50;;
30571;SDS011;17348;50.948;10.696;2022-11-15T16:41:40;7.10;;;3.50;;
30571;SDS011;17348;50.948;10.696;2022-11-15T16:44:48;11.18;;;4.15;;
30571;SDS011;17348;50.948;10.696;2022-11-15T16:47:51;9.77;;;5.00;;
30571;SDS011;17348;50.948;10.696;2022-11-15T16:50:54;21.73;;;5.07;;
30571;SDS011;17348;50.948;10.696;2022-11-15T16:53:57;12.30;;;4.20;;
30571;SDS011;17348;50.948;10.696;2022-11-15T16:57:00;12.48;;;5.32;;
30571;SDS011;17348;50.948;10.696;2022-11-15T17:00:04;10.15;;;4.68;;
30571;SDS011;17348;50.948;10.696;2022-11-15T17:03:07;11.27;;;3.92;;
30571;SDS011;17348;50.948;10.696;2022-11-15T17:06:09;11.13;;;4.18;;
30571;SDS011;17348;50.948;10.696;2022-11-15T17:09:13;16.90;;;4.80;;
30571;SDS011;17348;50.948;10.696;2022-11-15T17:12:17;13.15;;;5.00;;
30571;SDS011;17348;50.948;10.696;2022-11-15T17:15:21;10.02;;;4.90;;
30571;SDS011;17348;50.948;10.696;2022-11-15T17:18:24;9.82;;;3.95;;
30571;SDS011;17348;50.948;10.696;2022-11-15T17:21:27;11.45;;;5.13;;
30571;SDS011;17348;50.948;10.696;2022-11-15T17:24:29;11.70;;;5.35;;
30571;SDS011;17348;50.948;10.696;2022-11-15T17:27:32;12.73;;;6.53;;
30571;SDS011;17348;50.948;10.696;2022-11-15T17:30:35;9.35;;;4.70;;
30571;SDS011;17348;50.948;10.696;2022-11-15T17:33:41;15.43;;;6.03;;
30571;SDS011;17348;50.948;10.696;2022-11-15T17:36:44;12.07;;;6.07;;
30571;SDS011;17348;50.948;10.696;2022-11-15T17:39:47;9.55;;;4.90;;
30571;SDS011;17348;50.948;10.696;2022-11-15T17:42:49;11.02;;;4.85;;
30571;SDS011;17348;50.948;10.696;2022-11-15T17:45:53;9.65;;;4.70;;
30571;SDS011;17348;50.948;10.696;2022-11-15T17:48:55;11.25;;;3.97;;
30571;SDS011;17348;50.948;10.696;2022-11-15T17:51:58;5.70;;;3.38;;
30571;SDS011;17348;50.948;10.696;2022-11-15T17:55:00;5.88;;;3.00;;
30571;SDS011;17348;50.948;10.696;2022-11-15T17:58:03;13.18;;;3.58;;
30571;SDS011;17348;50.948;10.696;2022-11-15T18:01:07;15.45;;;3.33;;
30571;SDS011;17348;50.948;10.696;2022-11-15T18:04:18;7.18;;;3.72;;
30571;SDS011;17348;50.948;10.696;2022-11-15T18:07:23;10.65;;;4.10;;
30571;SDS011;17348;50.948;10.696;2022-11-15T18:10:25;9.02;;;3.65;;
30571;SDS011;17348;50.948;10.696;2022-11-15T18:13:27;5.53;;;3.33;;
30571;SDS011;17348;50.948;10.696;2022-11-15T18:16:32;12.57;;;5.28;;
30571;SDS011;17348;50.948;10.696;2022-11-15T18:19:35;15.63;;;6.30;;
30571;SDS011;17348;50.948;10.696;2022-11-15T18:22:38;13.05;;;6.35;;
30571;SDS011;17348;50.948;10.696;2022-11-15T18:25:40;14.90;;;5.43;;
30571;SDS011;17348;50.948;10.696;2022-11-15T18:28:44;10.30;;;5.38;;
30571;SDS011;17348;50.948;10.696;2022-11-15T18:31:49;12.63;;;5.75;;
30571;SDS011;17348;50.948;10.696;2022-11-15T18:34:54;16.88;;;6.45;;
30571;SDS011;17348;50.948;10.696;2022-11-15T18:37:57;14.65;;;6.68;;
30571;SDS011;17348;50.948;10.696;2022-11-15T18:41:04;13.07;;;6.65;;